sensor_id;sensor_type;location;lat;lon;timestamp;temperature;humidity
23556;DHT22;11956;53.184;8.578;2022-07-29T00:01:51;14.70;99.90
23556;DHT22;11956;53.184;8.578;2022-07-29T00:04:53;14.70;99.90
23556;DHT22;11956;53.184;8.578;2022-07-29T00:07:54;14.80;99.90
23556;DHT22;11956;53.184;8.578;2022-07-29T00:10:55;14.80;99.90
23556;DHT22;11956;53.184;8.578;2022-07-29T00:13:56;14.80;99.90
23556;DHT22;11956;53.184;8.578;2022-07-29T00:16:56;14.80;99.90
23556;DHT22;11956;53.184;8.578;2022-07-29T00:19:57;14.90;99.90
23556;DHT22;11956;53.184;8.578;2022-07-29T00:22:58;14.90;99.90
23556;DHT22;11956;53.184;8.578;2022-07-29T00:25:59;14.90;99.90
23556;DHT22;11956;53.184;8.578;2022-07-29T00:29:01;15.00;99.90
23556;DHT22;11956;53.184;8.578;2022-07-29T00:32:03;15.00;99.90
23556;DHT22;11956;53.184;8.578;2022-07-29T00:35:04;15.00;99.90
23556;DHT22;11956;53.184;8.578;2022-07-29T00:38:24;14.90;99.90
23556;DHT22;11956;53.184;8.578;2022-07-29T00:41:25;15.00;99.90
23556;DHT22;11956;53.184;8.578;2022-07-29T00:44:26;15.00;99.90
23556;DHT22;11956;53.184;8.578;2022-07-29T00:47:27;15.00;99.90
23556;DHT22;11956;53.184;8.578;2022-07-29T00:50:28;15.10;99.90
23556;DHT22;11956;53.184;8.578;2022-07-29T00:53:30;15.00;99.90
23556;DHT22;11956;53.184;8.578;2022-07-29T00:56:32;15.00;99.90
23556;DHT22;11956;53.184;8.578;2022-07-29T00:59:33;15.10;99.90
23556;DHT22;11956;53.184;8.578;2022-07-29T01:02:35;15.10;99.90
23556;DHT22;11956;53.184;8.578;2022-07-29T01:05:36;15.00;99.90
23556;DHT22;11956;53.184;8.578;2022-07-29T01:08:37;15.00;99.90
23556;DHT22;11956;53.184;8.578;2022-07-29T01:11:39;15.00;99.90
23556;DHT22;11956;53.184;8.578;2022-07-29T01:14:41;15.00;99.90
23556;DHT22;11956;53.184;8.578;2022-07-29T01:17:46;15.00;99.90
23556;DHT22;11956;53.184;8.578;2022-07-29T01:21:40;15.00;99.90
23556;DHT22;11956;53.184;8.578;2022-07-29T01:25:02;15.00;99.90
23556;DHT22;11956;53.184;8.578;2022-07-29T01:31:47;15.00;99.90
23556;DHT22;11956;53.184;8.578;2022-07-29T01:35:18;15.00;99.90
23556;DHT22;11956;53.184;8.578;2022-07-29T01:38:25;15.00;99.90
23556;DHT22;11956;53.184;8.578;2022-07-29T01:41:31;15.00;99.90
23556;DHT22;11956;53.184;8.578;2022-07-29T01:44:40;14.90;99.90
23556;DHT22;11956;53.184;8.578;2022-07-29T01:47:58;14.90;99.90
23556;DHT22;11956;53.184;8.578;2022-07-29T01:51:23;14.80;99.90
23556;DHT22;11956;53.184;8.578;2022-07-29T01:54:34;14.90;99.90
23556;DHT22;11956;53.184;8.578;2022-07-29T01:57:38;14.90;99.90
23556;DHT22;11956;53.184;8.578;2022-07-29T02:00:40;14.90;99.90
23556;DHT22;11956;53.184;8.578;2022-07-29T02:03:46;14.90;99.90
23556;DHT22;11956;53.184;8.578;2022-07-29T02:06:49;14.80;99.90
23556;DHT22;11956;53.184;8.578;2022-07-29T02:09:52;14.80;99.90
23556;DHT22;11956;53.184;8.578;2022-07-29T02:12:55;14.80;99.90
23556;DHT22;11956;53.184;8.578;2022-07-29T02:15:58;14.80;99.90
23556;DHT22;11956;53.184;8.578;2022-07-29T02:19:01;14.70;99.90
23556;DHT22;11956;53.184;8.578;2022-07-29T02:22:03;14.70;99.90
23556;DHT22;11956;53.184;8.578;2022-07-29T02:25:06;14.70;99.90
23556;DHT22;11956;53.184;8.578;2022-07-29T02:28:08;14.60;99.90
23556;DHT22;11956;53.184;8.578;2022-07-29T02:31:09;14.60;99.90
23556;DHT22;11956;53.184;8.578;2022-07-29T02:34:11;14.60;99.90
23556;DHT22;11956;53.184;8.578;2022-07-29T02:37:13;14.50;99.90
23556;DHT22;11956;53.184;8.578;2022-07-29T02:40:15;14.50;99.90
23556;DHT22;11956;53.184;8.578;2022-07-29T02:43:17;14.60;99.90
23556;DHT22;11956;53.184;8.578;2022-07-29T02:46:33;14.60;99.90
23556;DHT22;11956;53.184;8.578;2022-07-29T02:49:43;14.60;99.90
23556;DHT22;11956;53.184;8.578;2022-07-29T02:53:24;14.60;99.90
23556;DHT22;11956;53.184;8.578;2022-07-29T02:56:28;14.50;99.90
23556;DHT22;11956;53.184;8.578;2022-07-29T02:59:36;14.60;99.90
23556;DHT22;11956;53.184;8.578;2022-07-29T03:02:42;14.60;99.90
23556;DHT22;11956;53.184;8.578;2022-07-29T03:05:45;14.60;99.90
23556;DHT22;11956;53.184;8.578;2022-07-29T03:08:46;14.60;99.90
23556;DHT22;11956;53.184;8.578;2022-07-29T03:11:47;14.60;99.90
23556;DHT22;11956;53.184;8.578;2022-07-29T03:14:49;14.50;99.90
23556;DHT22;11956;53.184;8.578;2022-07-29T03:17:51;14.60;99.90
23556;DHT22;11956;53.184;8.578;2022-07-29T03:20:53;14.60;99.90
23556;DHT22;11956;53.184;8.578;2022-07-29T03:23:54;14.60;99.90
23556;DHT22;11956;53.184;8.578;2022-07-29T03:26:56;14.50;99.90
23556;DHT22;11956;53.184;8.578;2022-07-29T03:29:57;14.50;99.90
23556;DHT22;11956;53.184;8.578;2022-07-29T03:32:58;14.50;99.90
23556;DHT22;11956;53.184;8.578;2022-07-29T03:39:23;14.40;99.90
23556;DHT22;11956;53.184;8.578;2022-07-29T03:42:30;14.40;99.90
23556;DHT22;11956;53.184;8.578;2022-07-29T03:45:32;14.40;99.90
23556;DHT22;11956;53.184;8.578;2022-07-29T03:48:36;14.30;99.90
23556;DHT22;11956;53.184;8.578;2022-07-29T03:51:40;14.30;99.90
23556;DHT22;11956;53.184;8.578;2022-07-29T03:54:41;14.30;99.90
23556;DHT22;11956;53.184;8.578;2022-07-29T03:57:44;14.30;99.90
23556;DHT22;11956;53.184;8.578;2022-07-29T04:00:47;14.30;99.90
23556;DHT22;11956;53.184;8.578;2022-07-29T04:03:48;14.30;99.90
23556;DHT22;11956;53.184;8.578;2022-07-29T04:06:49;14.30;99.90
23556;DHT22;11956;53.184;8.578;2022-07-29T04:09:49;14.30;99.90
23556;DHT22;11956;53.184;8.578;2022-07-29T04:12:50;14.30;99.90
23556;DHT22;11956;53.184;8.578;2022-07-29T04:15:51;14.40;99.90
23556;DHT22;11956;53.184;8.578;2022-07-29T04:18:52;14.40;99.90
23556;DHT22;11956;53.184;8.578;2022-07-29T04:21:53;14.40;99.90
23556;DHT22;11956;53.184;8.578;2022-07-29T04:24:54;14.40;99.90
23556;DHT22;11956;53.184;8.578;2022-07-29T04:27:55;14.50;99.90
23556;DHT22;11956;53.184;8.578;2022-07-29T04:31:01;14.50;99.90
23556;DHT22;11956;53.184;8.578;2022-07-29T04:34:02;14.60;99.90
23556;DHT22;11956;53.184;8.578;2022-07-29T04:37:03;14.60;99.90
23556;DHT22;11956;53.184;8.578;2022-07-29T04:40:04;14.60;99.90
23556;DHT22;11956;53.184;8.578;2022-07-29T04:43:06;14.70;99.90
23556;DHT22;11956;53.184;8.578;2022-07-29T04:46:07;14.70;99.90
23556;DHT22;11956;53.184;8.578;2022-07-29T04:49:08;14.70;99.90
23556;DHT22;11956;53.184;8.578;2022-07-29T04:52:08;14.80;99.90
23556;DHT22;11956;53.184;8.578;2022-07-29T04:55:09;14.80;99.90
23556;DHT22;11956;53.184;8.578;2022-07-29T04:58:10;14.80;99.90
23556;DHT22;11956;53.184;8.578;2022-07-29T05:01:11;14.80;99.90
23556;DHT22;11956;53.184;8.578;2022-07-29T05:04:12;14.90;99.90
23556;DHT22;11956;53.184;8.578;2022-07-29T05:07:13;14.90;99.90
23556;DHT22;11956;53.184;8.578;2022-07-29T05:10:14;14.90;99.90
23556;DHT22;11956;53.184;8.578;2022-07-29T05:13:15;15.00;99.90
23556;DHT22;11956;53.184;8.578;2022-07-29T05:16:16;15.10;99.90
23556;DHT22;11956;53.184;8.578;2022-07-29T05:19:17;15.10;99.90
23556;DHT22;11956;53.184;8.578;2022-07-29T05:22:19;15.20;99.90
23556;DHT22;11956;53.184;8.578;2022-07-29T05:25:21;15.30;99.90
23556;DHT22;11956;53.184;8.578;2022-07-29T05:28:22;15.40;99.90
23556;DHT22;11956;53.184;8.578;2022-07-29T05:31:23;15.50;99.90
23556;DHT22;11956;53.184;8.578;2022-07-29T05:34:23;15.60;99.90
23556;DHT22;11956;53.184;8.578;2022-07-29T05:37:25;15.70;99.90
23556;DHT22;11956;53.184;8.578;2022-07-29T05:40:26;15.70;99.90
23556;DHT22;11956;53.184;8.578;2022-07-29T05:43:30;15.70;99.90
23556;DHT22;11956;53.184;8.578;2022-07-29T05:46:32;15.90;99.90
23556;DHT22;11956;53.184;8.578;2022-07-29T05:49:32;15.90;99.90
23556;DHT22;11956;53.184;8.578;2022-07-29T05:52:33;16.10;99.90
23556;DHT22;11956;53.184;8.578;2022-07-29T05:55:34;16.10;99.90
23556;DHT22;11956;53.184;8.578;2022-07-29T05:58:35;16.20;99.90
23556;DHT22;11956;53.184;8.578;2022-07-29T06:01:36;16.40;99.90
23556;DHT22;11956;53.184;8.578;2022-07-29T06:04:39;16.60;99.90
23556;DHT22;11956;53.184;8.578;2022-07-29T06:07:40;16.60;99.90
23556;DHT22;11956;53.184;8.578;2022-07-29T06:10:41;16.60;99.90
23556;DHT22;11956;53.184;8.578;2022-07-29T06:13:42;16.60;99.90
23556;DHT22;11956;53.184;8.578;2022-07-29T06:16:43;16.70;99.90
23556;DHT22;11956;53.184;8.578;2022-07-29T06:19:44;16.50;99.90
23556;DHT22;11956;53.184;8.578;2022-07-29T06:22:44;16.60;99.90
23556;DHT22;11956;53.184;8.578;2022-07-29T06:25:46;16.70;99.90
23556;DHT22;11956;53.184;8.578;2022-07-29T06:28:47;16.70;99.90
23556;DHT22;11956;53.184;8.578;2022-07-29T06:31:48;16.80;99.90
23556;DHT22;11956;53.184;8.578;2022-07-29T06:34:48;17.00;99.90
23556;DHT22;11956;53.184;8.578;2022-07-29T06:37:49;17.10;99.90
23556;DHT22;11956;53.184;8.578;2022-07-29T06:40:51;17.00;99.90
23556;DHT22;11956;53.184;8.578;2022-07-29T06:44:00;17.10;99.90
23556;DHT22;11956;53.184;8.578;2022-07-29T06:47:02;17.10;99.90
23556;DHT22;11956;53.184;8.578;2022-07-29T06:50:04;17.40;99.90
23556;DHT22;11956;53.184;8.578;2022-07-29T06:53:05;17.50;99.90
23556;DHT22;11956;53.184;8.578;2022-07-29T06:56:07;17.70;99.90
23556;DHT22;11956;53.184;8.578;2022-07-29T06:59:13;17.90;99.90
23556;DHT22;11956;53.184;8.578;2022-07-29T07:02:14;18.00;99.90
23556;DHT22;11956;53.184;8.578;2022-07-29T07:05:15;18.00;99.90
23556;DHT22;11956;53.184;8.578;2022-07-29T07:08:15;18.10;99.90
23556;DHT22;11956;53.184;8.578;2022-07-29T07:11:16;18.30;99.90
23556;DHT22;11956;53.184;8.578;2022-07-29T07:14:17;18.60;99.90
23556;DHT22;11956;53.184;8.578;2022-07-29T07:17:18;19.00;99.90
23556;DHT22;11956;53.184;8.578;2022-07-29T07:20:19;19.40;99.90
23556;DHT22;11956;53.184;8.578;2022-07-29T07:23:20;20.00;99.90
23556;DHT22;11956;53.184;8.578;2022-07-29T07:26:21;20.60;99.90
23556;DHT22;11956;53.184;8.578;2022-07-29T07:29:22;20.70;99.90
23556;DHT22;11956;53.184;8.578;2022-07-29T07:32:23;20.50;99.90
23556;DHT22;11956;53.184;8.578;2022-07-29T07:35:23;21.10;99.90
23556;DHT22;11956;53.184;8.578;2022-07-29T07:38:24;22.50;99.90
23556;DHT22;11956;53.184;8.578;2022-07-29T07:41:25;24.30;98.80
23556;DHT22;11956;53.184;8.578;2022-07-29T07:44:26;25.60;95.80
23556;DHT22;11956;53.184;8.578;2022-07-29T07:47:27;26.90;94.30
23556;DHT22;11956;53.184;8.578;2022-07-29T07:50:27;28.20;90.90
23556;DHT22;11956;53.184;8.578;2022-07-29T07:53:28;29.00;89.40
23556;DHT22;11956;53.184;8.578;2022-07-29T07:56:30;28.50;87.50
23556;DHT22;11956;53.184;8.578;2022-07-29T07:59:30;26.40;91.00
23556;DHT22;11956;53.184;8.578;2022-07-29T08:02:31;24.90;92.70
23556;DHT22;11956;53.184;8.578;2022-07-29T08:05:32;25.00;93.50
23556;DHT22;11956;53.184;8.578;2022-07-29T08:08:33;25.50;92.30
23556;DHT22;11956;53.184;8.578;2022-07-29T08:11:34;25.50;92.50
23556;DHT22;11956;53.184;8.578;2022-07-29T08:14:35;27.50;90.70
23556;DHT22;11956;53.184;8.578;2022-07-29T08:17:36;28.50;88.10
23556;DHT22;11956;53.184;8.578;2022-07-29T08:20:37;28.70;85.20
23556;DHT22;11956;53.184;8.578;2022-07-29T08:23:39;28.70;86.30
23556;DHT22;11956;53.184;8.578;2022-07-29T08:26:45;29.90;83.30
23556;DHT22;11956;53.184;8.578;2022-07-29T08:29:46;29.80;81.70
23556;DHT22;11956;53.184;8.578;2022-07-29T08:32:48;28.80;83.70
23556;DHT22;11956;53.184;8.578;2022-07-29T08:35:50;28.60;84.60
23556;DHT22;11956;53.184;8.578;2022-07-29T08:38:52;29.70;82.30
23556;DHT22;11956;53.184;8.578;2022-07-29T08:41:53;31.00;77.90
23556;DHT22;11956;53.184;8.578;2022-07-29T08:44:55;30.20;80.10
23556;DHT22;11956;53.184;8.578;2022-07-29T08:47:57;32.10;76.70
23556;DHT22;11956;53.184;8.578;2022-07-29T08:50:59;33.70;72.00
23556;DHT22;11956;53.184;8.578;2022-07-29T08:54:01;34.50;68.10
23556;DHT22;11956;53.184;8.578;2022-07-29T08:57:03;35.20;66.40
23556;DHT22;11956;53.184;8.578;2022-07-29T09:00:07;35.50;63.70
23556;DHT22;11956;53.184;8.578;2022-07-29T09:03:09;36.60;60.50
23556;DHT22;11956;53.184;8.578;2022-07-29T09:06:14;34.60;59.40
23556;DHT22;11956;53.184;8.578;2022-07-29T09:09:16;30.10;67.90
23556;DHT22;11956;53.184;8.578;2022-07-29T09:12:17;27.90;74.50
23556;DHT22;11956;53.184;8.578;2022-07-29T09:15:18;27.80;76.30
23556;DHT22;11956;53.184;8.578;2022-07-29T09:21:40;28.30;74.40
23556;DHT22;11956;53.184;8.578;2022-07-29T09:24:59;27.80;75.30
23556;DHT22;11956;53.184;8.578;2022-07-29T09:28:07;27.40;76.10
23556;DHT22;11956;53.184;8.578;2022-07-29T09:31:08;27.80;76.60
23556;DHT22;11956;53.184;8.578;2022-07-29T09:34:10;28.00;76.70
23556;DHT22;11956;53.184;8.578;2022-07-29T09:37:12;27.20;76.80
23556;DHT22;11956;53.184;8.578;2022-07-29T09:40:27;26.60;79.70
23556;DHT22;11956;53.184;8.578;2022-07-29T09:43:28;27.50;79.00
23556;DHT22;11956;53.184;8.578;2022-07-29T09:46:29;28.80;77.30
23556;DHT22;11956;53.184;8.578;2022-07-29T09:49:30;29.20;75.50
23556;DHT22;11956;53.184;8.578;2022-07-29T09:52:31;29.80;73.10
23556;DHT22;11956;53.184;8.578;2022-07-29T09:55:32;29.60;74.90
23556;DHT22;11956;53.184;8.578;2022-07-29T09:58:33;30.00;74.10
23556;DHT22;11956;53.184;8.578;2022-07-29T10:01:35;29.50;74.70
23556;DHT22;11956;53.184;8.578;2022-07-29T10:04:42;29.10;75.40
23556;DHT22;11956;53.184;8.578;2022-07-29T10:07:49;28.40;74.50
23556;DHT22;11956;53.184;8.578;2022-07-29T10:10:51;28.30;76.20
23556;DHT22;11956;53.184;8.578;2022-07-29T10:14:09;28.40;76.20
23556;DHT22;11956;53.184;8.578;2022-07-29T10:17:10;28.40;74.30
23556;DHT22;11956;53.184;8.578;2022-07-29T10:20:11;28.20;75.00
23556;DHT22;11956;53.184;8.578;2022-07-29T10:23:13;28.80;74.40
23556;DHT22;11956;53.184;8.578;2022-07-29T10:26:15;30.10;72.30
23556;DHT22;11956;53.184;8.578;2022-07-29T10:29:16;30.00;69.60
23556;DHT22;11956;53.184;8.578;2022-07-29T10:43:43;32.80;64.40
23556;DHT22;11956;53.184;8.578;2022-07-29T10:46:47;31.60;63.50
23556;DHT22;11956;53.184;8.578;2022-07-29T10:50:06;29.70;68.30
23556;DHT22;11956;53.184;8.578;2022-07-29T10:53:08;28.10;72.20
23556;DHT22;11956;53.184;8.578;2022-07-29T10:56:24;26.60;76.50
23556;DHT22;11956;53.184;8.578;2022-07-29T10:59:34;26.40;77.00
23556;DHT22;11956;53.184;8.578;2022-07-29T11:05:53;27.50;76.70
23556;DHT22;11956;53.184;8.578;2022-07-29T11:09:18;27.20;76.20
23556;DHT22;11956;53.184;8.578;2022-07-29T11:15:55;27.10;79.20
23556;DHT22;11956;53.184;8.578;2022-07-29T11:22:32;26.60;78.60
23556;DHT22;11956;53.184;8.578;2022-07-29T11:25:33;26.20;80.70
23556;DHT22;11956;53.184;8.578;2022-07-29T11:28:37;26.10;80.30
23556;DHT22;11956;53.184;8.578;2022-07-29T11:31:52;26.00;81.70
23556;DHT22;11956;53.184;8.578;2022-07-29T11:38:23;25.80;81.00
23556;DHT22;11956;53.184;8.578;2022-07-29T11:41:27;26.20;80.50
23556;DHT22;11956;53.184;8.578;2022-07-29T11:47:56;26.40;80.00
23556;DHT22;11956;53.184;8.578;2022-07-29T11:51:09;25.70;77.40
23556;DHT22;11956;53.184;8.578;2022-07-29T11:54:13;26.20;76.90
23556;DHT22;11956;53.184;8.578;2022-07-29T11:57:18;26.20;75.30
23556;DHT22;11956;53.184;8.578;2022-07-29T12:03:32;26.20;74.50
23556;DHT22;11956;53.184;8.578;2022-07-29T12:06:34;26.30;73.20
23556;DHT22;11956;53.184;8.578;2022-07-29T12:09:36;26.10;75.40
23556;DHT22;11956;53.184;8.578;2022-07-29T12:12:37;26.30;74.80
23556;DHT22;11956;53.184;8.578;2022-07-29T12:15:39;26.40;75.20
23556;DHT22;11956;53.184;8.578;2022-07-29T12:18:40;26.10;75.40
23556;DHT22;11956;53.184;8.578;2022-07-29T12:21:53;26.10;75.30
23556;DHT22;11956;53.184;8.578;2022-07-29T12:25:01;26.00;73.60
23556;DHT22;11956;53.184;8.578;2022-07-29T12:28:07;26.20;74.40
23556;DHT22;11956;53.184;8.578;2022-07-29T12:31:15;26.00;75.20
23556;DHT22;11956;53.184;8.578;2022-07-29T12:34:16;26.20;76.20
23556;DHT22;11956;53.184;8.578;2022-07-29T12:37:17;26.20;74.60
23556;DHT22;11956;53.184;8.578;2022-07-29T12:40:20;26.20;76.10
23556;DHT22;11956;53.184;8.578;2022-07-29T12:43:23;26.60;75.00
23556;DHT22;11956;53.184;8.578;2022-07-29T12:46:24;26.50;73.70
23556;DHT22;11956;53.184;8.578;2022-07-29T12:49:25;26.60;73.90
23556;DHT22;11956;53.184;8.578;2022-07-29T12:55:46;27.00;72.70
23556;DHT22;11956;53.184;8.578;2022-07-29T12:58:54;27.10;71.40
23556;DHT22;11956;53.184;8.578;2022-07-29T13:01:55;26.80;72.30
23556;DHT22;11956;53.184;8.578;2022-07-29T13:05:00;27.00;72.90
23556;DHT22;11956;53.184;8.578;2022-07-29T13:08:15;27.10;71.90
23556;DHT22;11956;53.184;8.578;2022-07-29T13:11:37;27.10;71.80
23556;DHT22;11956;53.184;8.578;2022-07-29T13:14:50;27.20;73.20
23556;DHT22;11956;53.184;8.578;2022-07-29T13:17:51;27.30;72.80
23556;DHT22;11956;53.184;8.578;2022-07-29T13:20:52;27.30;71.60
23556;DHT22;11956;53.184;8.578;2022-07-29T13:23:53;27.00;70.90
23556;DHT22;11956;53.184;8.578;2022-07-29T13:26:54;26.90;71.40
23556;DHT22;11956;53.184;8.578;2022-07-29T13:29:56;27.00;72.50
23556;DHT22;11956;53.184;8.578;2022-07-29T13:32:58;27.00;72.60
23556;DHT22;11956;53.184;8.578;2022-07-29T13:35:58;27.00;71.60
23556;DHT22;11956;53.184;8.578;2022-07-29T13:38:59;26.80;71.20
23556;DHT22;11956;53.184;8.578;2022-07-29T13:42:03;26.90;71.60
23556;DHT22;11956;53.184;8.578;2022-07-29T13:45:05;27.00;71.90
23556;DHT22;11956;53.184;8.578;2022-07-29T13:48:07;27.10;72.20
23556;DHT22;11956;53.184;8.578;2022-07-29T13:51:08;27.10;72.20
23556;DHT22;11956;53.184;8.578;2022-07-29T13:54:08;27.30;72.50
23556;DHT22;11956;53.184;8.578;2022-07-29T13:57:11;27.30;71.10
23556;DHT22;11956;53.184;8.578;2022-07-29T14:00:13;27.20;72.60
23556;DHT22;11956;53.184;8.578;2022-07-29T14:03:15;27.30;71.20
23556;DHT22;11956;53.184;8.578;2022-07-29T14:06:16;27.10;71.40
23556;DHT22;11956;53.184;8.578;2022-07-29T14:09:17;26.70;70.80
23556;DHT22;11956;53.184;8.578;2022-07-29T14:12:18;26.70;71.70
23556;DHT22;11956;53.184;8.578;2022-07-29T14:15:19;26.60;71.40
23556;DHT22;11956;53.184;8.578;2022-07-29T14:18:20;26.30;72.60
23556;DHT22;11956;53.184;8.578;2022-07-29T14:24:38;26.50;72.70
23556;DHT22;11956;53.184;8.578;2022-07-29T14:27:39;26.40;73.20
23556;DHT22;11956;53.184;8.578;2022-07-29T14:30:40;26.40;72.90
23556;DHT22;11956;53.184;8.578;2022-07-29T14:33:41;26.50;73.50
23556;DHT22;11956;53.184;8.578;2022-07-29T14:36:42;26.40;72.60
23556;DHT22;11956;53.184;8.578;2022-07-29T14:39:43;26.30;72.80
23556;DHT22;11956;53.184;8.578;2022-07-29T14:42:44;26.30;72.90
23556;DHT22;11956;53.184;8.578;2022-07-29T14:45:45;26.30;74.00
23556;DHT22;11956;53.184;8.578;2022-07-29T14:48:46;26.50;73.70
23556;DHT22;11956;53.184;8.578;2022-07-29T14:51:47;26.50;73.80
23556;DHT22;11956;53.184;8.578;2022-07-29T14:54:48;26.40;74.30
23556;DHT22;11956;53.184;8.578;2022-07-29T14:57:49;26.30;73.80
23556;DHT22;11956;53.184;8.578;2022-07-29T15:00:50;26.10;74.80
23556;DHT22;11956;53.184;8.578;2022-07-29T15:03:51;26.00;75.60
23556;DHT22;11956;53.184;8.578;2022-07-29T15:06:52;25.90;76.20
23556;DHT22;11956;53.184;8.578;2022-07-29T15:09:53;25.90;76.10
23556;DHT22;11956;53.184;8.578;2022-07-29T15:12:54;25.80;76.80
23556;DHT22;11956;53.184;8.578;2022-07-29T15:15:55;25.80;77.10
23556;DHT22;11956;53.184;8.578;2022-07-29T15:18:56;25.70;77.40
23556;DHT22;11956;53.184;8.578;2022-07-29T15:21:58;25.60;78.10
23556;DHT22;11956;53.184;8.578;2022-07-29T15:24:59;25.50;79.10
23556;DHT22;11956;53.184;8.578;2022-07-29T15:28:00;25.40;80.90
23556;DHT22;11956;53.184;8.578;2022-07-29T15:31:03;25.30;81.70
23556;DHT22;11956;53.184;8.578;2022-07-29T15:34:04;25.20;82.50
23556;DHT22;11956;53.184;8.578;2022-07-29T15:37:05;25.00;83.50
23556;DHT22;11956;53.184;8.578;2022-07-29T15:40:07;24.90;83.90
23556;DHT22;11956;53.184;8.578;2022-07-29T15:43:08;24.80;84.40
23556;DHT22;11956;53.184;8.578;2022-07-29T15:46:13;24.70;84.40
23556;DHT22;11956;53.184;8.578;2022-07-29T15:49:36;24.70;86.10
23556;DHT22;11956;53.184;8.578;2022-07-29T15:52:37;24.70;86.50
23556;DHT22;11956;53.184;8.578;2022-07-29T15:55:38;24.60;87.60
23556;DHT22;11956;53.184;8.578;2022-07-29T15:58:39;24.50;87.90
23556;DHT22;11956;53.184;8.578;2022-07-29T16:01:40;24.40;88.20
23556;DHT22;11956;53.184;8.578;2022-07-29T16:04:41;24.40;88.20
23556;DHT22;11956;53.184;8.578;2022-07-29T16:07:42;24.40;88.60
23556;DHT22;11956;53.184;8.578;2022-07-29T16:10:43;24.40;88.80
23556;DHT22;11956;53.184;8.578;2022-07-29T16:13:44;24.30;89.40
23556;DHT22;11956;53.184;8.578;2022-07-29T16:16:45;24.20;89.40
23556;DHT22;11956;53.184;8.578;2022-07-29T16:19:46;24.10;90.00
23556;DHT22;11956;53.184;8.578;2022-07-29T16:22:47;24.10;90.00
23556;DHT22;11956;53.184;8.578;2022-07-29T16:25:48;24.20;90.20
23556;DHT22;11956;53.184;8.578;2022-07-29T16:28:49;24.20;89.90
23556;DHT22;11956;53.184;8.578;2022-07-29T16:31:50;24.10;90.10
23556;DHT22;11956;53.184;8.578;2022-07-29T16:34:52;24.10;90.10
23556;DHT22;11956;53.184;8.578;2022-07-29T16:37:53;24.10;90.10
23556;DHT22;11956;53.184;8.578;2022-07-29T16:40:54;24.00;90.50
23556;DHT22;11956;53.184;8.578;2022-07-29T16:43:54;23.80;92.50
23556;DHT22;11956;53.184;8.578;2022-07-29T16:46:55;23.60;93.30
23556;DHT22;11956;53.184;8.578;2022-07-29T16:49:56;23.30;93.80
23556;DHT22;11956;53.184;8.578;2022-07-29T16:52:58;23.20;94.00
23556;DHT22;11956;53.184;8.578;2022-07-29T16:55:59;23.20;95.00
23556;DHT22;11956;53.184;8.578;2022-07-29T16:59:00;23.30;94.60
23556;DHT22;11956;53.184;8.578;2022-07-29T17:02:00;23.20;94.50
23556;DHT22;11956;53.184;8.578;2022-07-29T17:05:02;23.20;94.30
23556;DHT22;11956;53.184;8.578;2022-07-29T17:08:03;23.20;95.80
23556;DHT22;11956;53.184;8.578;2022-07-29T17:11:04;23.00;95.70
23556;DHT22;11956;53.184;8.578;2022-07-29T17:14:04;22.80;98.30
23556;DHT22;11956;53.184;8.578;2022-07-29T17:17:05;22.60;99.20
23556;DHT22;11956;53.184;8.578;2022-07-29T17:20:08;22.50;99.90
23556;DHT22;11956;53.184;8.578;2022-07-29T17:23:09;22.40;99.90
23556;DHT22;11956;53.184;8.578;2022-07-29T17:26:10;22.20;99.90
23556;DHT22;11956;53.184;8.578;2022-07-29T17:29:11;22.20;99.90
23556;DHT22;11956;53.184;8.578;2022-07-29T17:32:15;22.20;99.90
23556;DHT22;11956;53.184;8.578;2022-07-29T17:35:16;22.10;99.90
23556;DHT22;11956;53.184;8.578;2022-07-29T17:38:35;22.10;99.90
23556;DHT22;11956;53.184;8.578;2022-07-29T17:41:37;22.20;99.90
23556;DHT22;11956;53.184;8.578;2022-07-29T17:44:40;22.10;99.90
23556;DHT22;11956;53.184;8.578;2022-07-29T17:47:41;22.10;99.90
23556;DHT22;11956;53.184;8.578;2022-07-29T17:50:42;21.80;99.90
23556;DHT22;11956;53.184;8.578;2022-07-29T17:53:43;21.40;99.90
23556;DHT22;11956;53.184;8.578;2022-07-29T17:56:44;20.90;99.90
23556;DHT22;11956;53.184;8.578;2022-07-29T17:59:44;20.40;99.90
23556;DHT22;11956;53.184;8.578;2022-07-29T18:02:45;20.10;99.90
23556;DHT22;11956;53.184;8.578;2022-07-29T18:05:46;19.80;99.90
23556;DHT22;11956;53.184;8.578;2022-07-29T18:08:47;19.50;99.90
23556;DHT22;11956;53.184;8.578;2022-07-29T18:11:48;19.40;99.90
23556;DHT22;11956;53.184;8.578;2022-07-29T18:14:49;19.20;99.90
23556;DHT22;11956;53.184;8.578;2022-07-29T18:17:50;19.20;99.90
23556;DHT22;11956;53.184;8.578;2022-07-29T18:20:50;19.10;99.90
23556;DHT22;11956;53.184;8.578;2022-07-29T18:23:51;18.90;99.90
23556;DHT22;11956;53.184;8.578;2022-07-29T18:26:52;18.90;99.90
23556;DHT22;11956;53.184;8.578;2022-07-29T18:29:53;18.80;99.90
23556;DHT22;11956;53.184;8.578;2022-07-29T18:32:54;18.70;99.90
23556;DHT22;11956;53.184;8.578;2022-07-29T18:35:55;18.60;99.90
23556;DHT22;11956;53.184;8.578;2022-07-29T18:38:56;18.60;99.90
23556;DHT22;11956;53.184;8.578;2022-07-29T18:41:57;18.60;99.90
23556;DHT22;11956;53.184;8.578;2022-07-29T18:44:58;18.50;99.90
23556;DHT22;11956;53.184;8.578;2022-07-29T18:48:00;18.50;99.90
23556;DHT22;11956;53.184;8.578;2022-07-29T18:51:01;18.50;99.90
23556;DHT22;11956;53.184;8.578;2022-07-29T18:54:02;18.40;99.90
23556;DHT22;11956;53.184;8.578;2022-07-29T18:57:04;18.30;99.90
23556;DHT22;11956;53.184;8.578;2022-07-29T19:00:06;18.10;99.90
23556;DHT22;11956;53.184;8.578;2022-07-29T19:03:08;18.00;99.90
23556;DHT22;11956;53.184;8.578;2022-07-29T19:06:09;18.00;99.90
23556;DHT22;11956;53.184;8.578;2022-07-29T19:09:10;17.90;99.90
23556;DHT22;11956;53.184;8.578;2022-07-29T19:12:11;17.90;99.90
23556;DHT22;11956;53.184;8.578;2022-07-29T19:15:12;17.80;99.90
23556;DHT22;11956;53.184;8.578;2022-07-29T19:18:13;17.70;99.90
23556;DHT22;11956;53.184;8.578;2022-07-29T19:21:14;17.70;99.90
23556;DHT22;11956;53.184;8.578;2022-07-29T19:24:15;17.70;99.90
23556;DHT22;11956;53.184;8.578;2022-07-29T19:27:16;17.60;99.90
23556;DHT22;11956;53.184;8.578;2022-07-29T19:30:17;17.40;99.90
23556;DHT22;11956;53.184;8.578;2022-07-29T19:33:18;17.30;99.90
23556;DHT22;11956;53.184;8.578;2022-07-29T19:36:19;17.10;99.90
23556;DHT22;11956;53.184;8.578;2022-07-29T19:39:20;17.00;99.90
23556;DHT22;11956;53.184;8.578;2022-07-29T19:42:20;16.90;99.90
23556;DHT22;11956;53.184;8.578;2022-07-29T19:45:22;16.90;99.90
23556;DHT22;11956;53.184;8.578;2022-07-29T19:48:24;16.80;99.90
23556;DHT22;11956;53.184;8.578;2022-07-29T19:51:25;16.90;99.90
23556;DHT22;11956;53.184;8.578;2022-07-29T19:54:26;16.90;99.90
23556;DHT22;11956;53.184;8.578;2022-07-29T19:57:27;17.00;99.90
23556;DHT22;11956;53.184;8.578;2022-07-29T20:00:28;17.10;99.90
23556;DHT22;11956;53.184;8.578;2022-07-29T20:03:30;17.20;99.90